Time;durP1;ratioP1;P1;durP2;ratioP2;P2;SDS_P1;SDS_P2;PMS_P1;PMS_P2;Temp;Humidity;BMP_temperature;BMP_pressure;BME280_temperature;BME280_humidity;BME280_pressure;Samples;Min_cycle;Max_cycle;Signal;HPM_P1;HPM_P2
2023/06/08 00:00:08;;;;;;;11.35;2.95;;;13.50;99.90;;;;;;5052129;28;20503;-75
2023/06/08 00:02:35;;;;;;;11.95;2.65;;;13.40;99.90;;;;;;5053753;28;20024;-75
2023/06/08 00:05:02;;;;;;;7.03;2.53;;;13.30;99.90;;;;;;5053748;28;20021;-75
2023/06/08 00:07:29;;;;;;;9.70;3.10;;;13.30;99.90;;;;;;5054280;28;20083;-75
2023/06/08 00:09:56;;;;;;;13.20;3.42;;;13.30;99.90;;;;;;5052248;28;20021;-75
2023/06/08 00:12:22;;;;;;;8.35;2.20;;;13.20;99.90;;;;;;5053997;28;20021;-75
2023/06/08 00:14:48;;;;;;;14.02;2.45;;;13.20;99.90;;;;;;5052262;28;20392;-76
2023/06/08 00:17:14;;;;;;;9.80;2.90;;;13.20;99.90;;;;;;5053565;28;20025;-75
2023/06/08 00:19:42;;;;;;;13.20;2.65;;;13.10;99.90;;;;;;5053320;28;20017;-75
2023/06/08 00:22:08;;;;;;;6.80;2.00;;;13.10;99.90;;;;;;5053528;28;20017;-75
2023/06/08 00:24:35;;;;;;;10.27;2.92;;;13.00;99.90;;;;;;5054041;28;20081;-75
2023/06/08 00:27:00;;;;;;;9.60;2.63;;;13.10;99.90;;;;;;5053327;28;20093;-75
2023/06/08 00:29:26;;;;;;;11.30;2.90;;;13.00;99.90;;;;;;5051967;28;20121;-75
2023/06/08 00:31:52;;;;;;;6.88;3.35;;;13.00;99.90;;;;;;5051914;28;20029;-75
2023/06/08 00:34:18;;;;;;;5.82;2.35;;;12.90;99.90;;;;;;5053216;28;20029;-75
2023/06/08 00:36:44;;;;;;;10.90;3.20;;;12.80;99.90;;;;;;5053363;28;20510;-75
2023/06/08 00:39:09;;;;;;;6.68;1.90;;;12.90;99.90;;;;;;5053210;28;20017;-75
2023/06/08 00:41:35;;;;;;;10.65;3.53;;;12.80;99.90;;;;;;5053180;28;20045;-75
2023/06/08 00:44:00;;;;;;;8.20;2.83;;;12.80;99.90;;;;;;5053082;28;20134;-75
2023/06/08 00:46:30;;;;;;;9.82;3.58;;;12.80;99.90;;;;;;5053135;28;20029;-75
2023/06/08 00:48:57;;;;;;;10.88;2.55;;;12.80;99.90;;;;;;5053191;28;20523;-75
2023/06/08 00:51:24;;;;;;;13.50;3.22;;;12.70;99.90;;;;;;5053207;28;20025;-75
2023/06/08 00:53:51;;;;;;;11.13;3.10;;;12.70;99.90;;;;;;5052991;28;20021;-75
2023/06/08 00:56:18;;;;;;;9.32;2.92;;;12.60;99.90;;;;;;5051734;28;20052;-75
2023/06/08 00:58:46;;;;;;;12.25;3.05;;;12.60;99.90;;;;;;5053008;28;20024;-76
2023/06/08 01:01:18;;;;;;;;;;;12.60;99.90;;;;;;5053498;28;20100;-75
2023/06/08 01:03:47;;;;;;;7.53;2.95;;;12.50;99.90;;;;;;5053051;28;19911;-75
2023/06/08 01:06:16;;;;;;;9.75;3.72;;;12.50;99.90;;;;;;5053104;28;20028;-75
2023/06/08 01:09:01;;;;;;;9.30;3.38;;;12.50;99.90;;;;;;5051678;28;20074;-75
2023/06/08 01:11:54;;;;;;;5.20;2.55;;;12.50;99.90;;;;;;5057342;28;20051;-75
2023/06/08 01:14:41;;;;;;;14.35;3.42;;;12.50;99.90;;;;;;5057440;28;20073;-76
2023/06/08 01:17:12;;;;;;;8.82;2.80;;;12.40;99.90;;;;;;5057470;28;20032;-76
2023/06/08 01:20:02;;;;;;;6.63;2.88;;;12.50;99.90;;;;;;5055480;28;20077;-75
2023/06/08 01:22:41;;;;;;;13.57;3.80;;;12.40;99.90;;;;;;5056720;28;20021;-75
2023/06/08 01:25:08;;;;;;;11.20;3.25;;;12.40;99.90;;;;;;5056880;28;20033;-76
2023/06/08 01:27:36;;;;;;;9.77;3.00;;;12.30;99.90;;;;;;5055247;28;20036;-75
2023/06/08 01:30:04;;;;;;;10.43;3.58;;;12.30;99.90;;;;;;5056589;28;20028;-75
2023/06/08 01:32:30;;;;;;;8.13;2.88;;;12.30;99.90;;;;;;5056372;28;20048;-75
2023/06/08 01:34:55;;;;;;;13.05;2.88;;;12.30;99.90;;;;;;5056445;28;20020;-75
2023/06/08 01:37:33;;;;;;;13.05;2.95;;;12.20;99.90;;;;;;5055187;28;20021;-76
2023/06/08 01:40:23;;;;;;;8.55;2.55;;;12.20;99.90;;;;;;5056915;28;20066;-75
2023/06/08 01:42:50;;;;;;;8.25;2.72;;;12.20;99.90;;;;;;5056525;28;20476;-75
2023/06/08 01:45:23;;;;;;;9.70;2.92;;;12.10;99.90;;;;;;5056366;28;20017;-75
2023/06/08 01:47:54;;;;;;;10.13;2.80;;;12.10;99.90;;;;;;5056357;28;20479;-75
2023/06/08 01:50:21;;;;;;;12.32;3.33;;;12.00;99.90;;;;;;5055444;28;20384;-75
2023/06/08 01:52:47;;;;;;;10.55;3.85;;;12.00;99.90;;;;;;5056072;28;20547;-75
2023/06/08 01:55:17;;;;;;;11.07;3.28;;;12.00;99.90;;;;;;5056309;28;20024;-75
2023/06/08 01:57:43;;;;;;;12.40;3.08;;;11.90;99.90;;;;;;5056028;28;20055;-75
2023/06/08 02:00:09;;;;;;;11.52;3.05;;;11.90;99.90;;;;;;5055975;28;20439;-75
2023/06/08 02:02:36;;;;;;;6.38;3.35;;;11.90;99.90;;;;;;5056098;28;20028;-75
2023/06/08 02:05:02;;;;;;;8.77;3.20;;;11.90;99.90;;;;;;5054676;28;20458;-75
2023/06/08 02:07:28;;;;;;;11.85;3.67;;;11.90;99.90;;;;;;5055831;28;20060;-75
2023/06/08 02:09:53;;;;;;;10.82;3.65;;;11.90;99.90;;;;;;5055769;28;20025;-75
2023/06/08 02:12:19;;;;;;;15.48;4.10;;;11.90;99.90;;;;;;5055614;28;20021;-75
2023/06/08 02:14:46;;;;;;;15.60;4.13;;;11.90;99.90;;;;;;5055824;28;20025;-75
2023/06/08 02:17:13;;;;;;;13.98;3.83;;;11.90;99.90;;;;;;5055915;28;20017;-75
2023/06/08 02:19:39;;;;;;;17.88;3.58;;;11.90;99.90;;;;;;5055771;28;20100;-75
2023/06/08 02:22:05;;;;;;;8.88;3.60;;;11.90;99.90;;;;;;5053802;28;20032;-75
2023/06/08 02:24:30;;;;;;;10.40;4.10;;;11.80;99.90;;;;;;5055728;28;20025;-75
2023/06/08 02:26:56;;;;;;;11.98;3.85;;;11.90;99.90;;;;;;5055653;28;20037;-75
2023/06/08 02:29:22;;;;;;;9.05;4.18;;;11.90;99.90;;;;;;5055568;28;20029;-75
2023/06/08 02:31:47;;;;;;;10.90;4.43;;;11.90;99.90;;;;;;5055330;28;20040;-75
2023/06/08 02:34:13;;;;;;;9.20;3.47;;;11.90;99.90;;;;;;5054278;28;20029;-75
2023/06/08 02:36:39;;;;;;;17.08;3.97;;;11.90;99.90;;;;;;5055467;28;20020;-75
2023/06/08 02:39:05;;;;;;;10.55;4.13;;;11.90;99.90;;;;;;5054106;28;20021;-75
2023/06/08 02:41:31;;;;;;;13.07;4.35;;;11.80;99.90;;;;;;5055290;28;20025;-75
2023/06/08 02:43:56;;;;;;;7.88;3.90;;;11.80;99.90;;;;;;5055344;28;20052;-75
2023/06/08 02:46:22;;;;;;;18.38;4.18;;;11.90;99.90;;;;;;5055378;28;20024;-75
2023/06/08 02:48:49;;;;;;;14.75;4.63;;;11.90;99.90;;;;;;5054165;28;20021;-75
2023/06/08 02:51:16;;;;;;;14.80;4.60;;;11.80;99.90;;;;;;5053968;28;20116;-75
2023/06/08 02:53:42;;;;;;;17.75;5.68;;;11.90;99.90;;;;;;5055146;28;20488;-75
2023/06/08 02:56:07;;;;;;;13.68;4.50;;;11.90;99.90;;;;;;5055774;28;20109;-75
2023/06/08 02:58:33;;;;;;;12.77;4.75;;;11.90;99.90;;;;;;5055110;28;20357;-75
2023/06/08 03:01:00;;;;;;;14.57;5.32;;;11.90;99.90;;;;;;5055230;28;20021;-75
2023/06/08 03:03:29;;;;;;;11.75;4.20;;;11.90;99.90;;;;;;5054872;28;20396;-75
2023/06/08 03:05:58;;;;;;;12.75;4.40;;;11.90;99.90;;;;;;5053416;28;20017;-75
2023/06/08 03:08:28;;;;;;;16.00;5.20;;;11.90;99.90;;;;;;5053677;28;20085;-75
2023/06/08 03:10:53;;;;;;;13.05;4.93;;;11.80;99.90;;;;;;5054773;28;20511;-75
2023/06/08 03:13:21;;;;;;;16.67;6.25;;;11.90;99.90;;;;;;5053591;28;20021;-75
2023/06/08 03:15:46;;;;;;;14.73;4.85;;;11.90;99.90;;;;;;5054757;28;20021;-75
2023/06/08 03:18:12;;;;;;;10.50;5.00;;;11.90;99.90;;;;;;5054571;28;20357;-75
2023/06/08 03:20:38;;;;;;;14.05;5.38;;;11.90;99.90;;;;;;5054704;28;20025;-75
2023/06/08 03:23:07;;;;;;;15.25;5.50;;;11.90;99.90;;;;;;5054480;28;20028;-75
2023/06/08 03:25:34;;;;;;;16.30;5.65;;;11.80;99.90;;;;;;5053384;28;20032;-75
2023/06/08 03:27:59;;;;;;;10.95;4.78;;;11.80;99.90;;;;;;5054445;28;20028;-75
2023/06/08 03:30:25;;;;;;;14.65;4.80;;;11.80;99.90;;;;;;5053141;28;20017;-75
2023/06/08 03:32:51;;;;;;;19.13;5.45;;;11.80;99.90;;;;;;5053843;28;20060;-75
2023/06/08 03:35:18;;;;;;;13.15;4.72;;;11.80;99.90;;;;;;5052925;28;20028;-75
2023/06/08 03:37:43;;;;;;;11.95;5.05;;;11.80;99.90;;;;;;5054823;28;20100;-75
2023/06/08 03:40:09;;;;;;;12.05;5.35;;;11.70;99.90;;;;;;5053961;28;20112;-75
2023/06/08 03:42:35;;;;;;;13.48;4.57;;;11.80;99.90;;;;;;5054212;28;20116;-75
2023/06/08 03:45:00;;;;;;;13.88;5.45;;;11.80;99.90;;;;;;5054175;28;20135;-75
2023/06/08 03:47:26;;;;;;;12.65;5.30;;;11.80;99.90;;;;;;5054271;28;20021;-75
2023/06/08 03:49:52;;;;;;;25.60;5.88;;;11.90;99.90;;;;;;5054008;28;20104;-75
2023/06/08 03:52:18;;;;;;;17.70;5.40;;;11.90;99.90;;;;;;5053735;28;20028;-75
2023/06/08 03:54:45;;;;;;;16.45;5.70;;;11.90;99.90;;;;;;5054005;28;20092;-76
2023/06/08 03:57:10;;;;;;;22.05;6.57;;;12.00;99.90;;;;;;5052685;28;20028;-75
2023/06/08 03:59:36;;;;;;;14.65;5.97;;;12.00;99.90;;;;;;5053659;28;20017;-75
2023/06/08 04:02:02;;;;;;;12.43;5.05;;;12.10;99.90;;;;;;5053914;28;20484;-75
2023/06/08 04:04:31;;;;;;;11.63;5.00;;;12.30;99.90;;;;;;5053775;28;20028;-73
2023/06/08 04:07:00;;;;;;;12.07;5.07;;;12.30;99.90;;;;;;5054175;28;20029;-74
2023/06/08 04:09:28;;;;;;;13.75;5.65;;;12.30;99.90;;;;;;5053567;28;20033;-74
2023/06/08 04:11:56;;;;;;;14.55;5.13;;;12.40;99.90;;;;;;5053617;28;20369;-74
2023/06/08 04:14:22;;;;;;;16.85;5.90;;;12.40;99.90;;;;;;5053451;28;20390;-74
2023/06/08 04:16:47;;;;;;;20.10;5.85;;;12.50;99.90;;;;;;5053469;28;20021;-74
2023/06/08 04:19:13;;;;;;;14.60;5.70;;;12.50;99.90;;;;;;5053350;28;20017;-73
2023/06/08 04:21:39;;;;;;;15.05;5.22;;;12.60;99.90;;;;;;5053409;28;20108;-74
2023/06/08 04:24:05;;;;;;;18.67;5.93;;;12.60;99.90;;;;;;5052195;28;20082;-74
2023/06/08 04:26:32;;;;;;;12.10;5.10;;;12.60;99.90;;;;;;5053383;28;20021;-74
2023/06/08 04:28:57;;;;;;;16.90;5.78;;;12.60;99.90;;;;;;5051922;28;20111;-74
2023/06/08 04:31:23;;;;;;;20.27;7.55;;;12.70;99.90;;;;;;5053131;28;20060;-74
2023/06/08 04:33:49;;;;;;;14.00;5.28;;;12.70;99.90;;;;;;5053716;28;20028;-74
2023/06/08 04:36:15;;;;;;;12.90;4.82;;;12.70;99.90;;;;;;5053284;28;20020;-74
2023/06/08 04:38:42;;;;;;;12.40;5.53;;;12.80;99.90;;;;;;5053604;28;20389;-74
2023/06/08 04:41:08;;;;;;;13.75;4.68;;;12.80;99.90;;;;;;5051856;28;20021;-74
2023/06/08 04:43:34;;;;;;;13.32;5.07;;;12.90;99.90;;;;;;5053179;28;20075;-74
2023/06/08 04:46:04;;;;;;;13.95;5.25;;;13.00;99.90;;;;;;5052984;28;20029;-74
2023/06/08 04:48:33;;;;;;;13.75;5.78;;;13.10;99.90;;;;;;5053113;28;20025;-74
2023/06/08 04:51:01;;;;;;;12.35;5.05;;;13.10;99.90;;;;;;5051958;28;20361;-74
2023/06/08 04:53:28;;;;;;;15.00;4.65;;;13.10;99.90;;;;;;5053213;28;20028;-74
2023/06/08 04:55:57;;;;;;;10.82;4.50;;;13.20;99.90;;;;;;5053155;28;20029;-74
2023/06/08 04:58:26;;;;;;;12.55;4.93;;;13.30;99.90;;;;;;5051835;28;20025;-73
2023/06/08 05:00:52;;;;;;;13.30;5.32;;;13.20;99.90;;;;;;5053315;28;20028;-75
2023/06/08 05:03:19;;;;;;;13.77;4.15;;;13.20;99.90;;;;;;5053123;28;20029;-74
2023/06/08 05:05:45;;;;;;;13.93;5.10;;;13.20;99.90;;;;;;5052182;28;20029;-74
2023/06/08 05:08:10;;;;;;;15.07;4.57;;;13.20;99.90;;;;;;5053363;28;20037;-75
2023/06/08 05:10:36;;;;;;;15.40;5.28;;;13.20;99.90;;;;;;5051755;28;20074;-74
2023/06/08 05:13:01;;;;;;;10.02;4.50;;;13.30;99.90;;;;;;5052725;28;20061;-75
2023/06/08 05:15:28;;;;;;;11.80;4.45;;;13.30;99.90;;;;;;5053543;28;20025;-75
2023/06/08 05:17:55;;;;;;;10.13;4.13;;;13.40;99.90;;;;;;5052216;28;20025;-75
2023/06/08 05:20:22;;;;;;;14.20;4.70;;;13.50;99.90;;;;;;5052717;28;20013;-74
2023/06/08 05:22:48;;;;;;;9.57;4.43;;;13.70;99.90;;;;;;5051727;28;20025;-73
2023/06/08 05:25:14;;;;;;;11.27;4.10;;;13.70;99.90;;;;;;5052773;28;20393;-74
2023/06/08 05:27:40;;;;;;;10.57;4.35;;;14.00;99.90;;;;;;5053286;28;20029;-75
2023/06/08 05:30:06;;;;;;;11.55;3.50;;;14.10;99.90;;;;;;5051362;28;20032;-74
2023/06/08 05:32:32;;;;;;;12.40;3.90;;;14.20;99.90;;;;;;5052358;28;20033;-73
2023/06/08 05:34:58;;;;;;;17.45;3.63;;;14.50;99.90;;;;;;5053178;28;20052;-73
2023/06/08 05:37:24;;;;;;;14.52;4.03;;;;;;;;;;5051451;28;20021;-73
2023/06/08 05:39:50;;;;;;;12.25;3.28;;;15.00;99.90;;;;;;5053113;28;20032;-73
2023/06/08 05:42:16;;;;;;;6.07;2.45;;;15.30;99.90;;;;;;5052669;28;20408;-73
2023/06/08 05:44:41;;;;;;;8.15;3.05;;;15.40;99.90;;;;;;5053056;28;20036;-73
2023/06/08 05:47:07;;;;;;;10.20;4.25;;;15.50;99.90;;;;;;5051451;28;20036;-73
2023/06/08 05:49:32;;;;;;;15.65;2.63;;;15.50;99.90;;;;;;5052772;28;20104;-73
2023/06/08 05:51:58;;;;;;;5.95;3.28;;;15.60;99.90;;;;;;5052666;28;20025;-73
2023/06/08 05:54:23;;;;;;;10.75;3.53;;;15.50;99.90;;;;;;5052971;28;20126;-74
2023/06/08 05:56:50;;;;;;;8.38;3.20;;;15.40;99.90;;;;;;5053578;28;20068;-74
2023/06/08 05:59:16;;;;;;;10.77;3.67;;;15.30;99.90;;;;;;5054740;28;20032;-73
2023/06/08 06:01:42;;;;;;;8.30;2.92;;;15.30;99.90;;;;;;5056151;28;20025;-74
2023/06/08 06:04:08;;;;;;;6.97;2.60;;;15.10;99.90;;;;;;5056429;28;20499;-73
2023/06/08 06:06:35;;;;;;;7.88;3.42;;;14.90;99.90;;;;;;5054917;28;20028;-74
2023/06/08 06:09:01;;;;;;;6.63;3.05;;;14.60;99.90;;;;;;5055990;28;20028;-74
2023/06/08 06:11:26;;;;;;;7.28;2.90;;;14.70;99.90;;;;;;5054639;28;20098;-74
2023/06/08 06:13:52;;;;;;;8.18;3.28;;;14.50;99.90;;;;;;5056281;28;20021;-74
2023/06/08 06:16:18;;;;;;;7.20;3.40;;;14.50;99.90;;;;;;5054526;28;20025;-74
2023/06/08 06:18:45;;;;;;;7.40;3.20;;;14.30;99.90;;;;;;5054378;28;20451;-74
2023/06/08 06:21:10;;;;;;;10.15;2.58;;;14.20;99.90;;;;;;5056254;28;20075;-74
2023/06/08 06:23:36;;;;;;;14.55;4.32;;;14.20;99.90;;;;;;5055860;28;20476;-74
2023/06/08 06:26:01;;;;;;;8.05;2.83;;;14.20;99.90;;;;;;5054159;28;20029;-74
2023/06/08 06:28:27;;;;;;;7.25;2.50;;;14.20;99.90;;;;;;5054017;28;20476;-74
2023/06/08 06:30:52;;;;;;;4.72;2.60;;;15.70;99.90;;;;;;5054719;28;20029;-74
2023/06/08 06:33:18;;;;;;;9.10;3.05;;;14.20;99.90;;;;;;5053723;28;20029;-74
2023/06/08 06:35:44;;;;;;;6.18;2.47;;;14.30;99.90;;;;;;5054649;28;20536;-74
2023/06/08 06:38:09;;;;;;;10.00;2.97;;;15.50;99.90;;;;;;5055645;28;20029;-74
2023/06/08 06:40:35;;;;;;;5.25;2.15;;;14.40;99.90;;;;;;5055105;28;20025;-74
2023/06/08 06:43:00;;;;;;;5.70;2.55;;;15.40;99.90;;;;;;5055725;28;20021;-74
2023/06/08 06:45:27;;;;;;;9.82;3.28;;;14.70;99.90;;;;;;5055519;28;20576;-74
2023/06/08 06:47:52;;;;;;;7.15;2.35;;;14.90;99.90;;;;;;5055304;28;20024;-74
2023/06/08 06:50:18;;;;;;;4.35;1.98;;;15.20;99.90;;;;;;5055740;28;20109;-74
2023/06/08 06:52:44;;;;;;;11.15;2.90;;;15.60;99.90;;;;;;5054084;28;20017;-74
2023/06/08 06:55:09;;;;;;;6.88;2.03;;;16.10;99.90;;;;;;5055816;28;20456;-74
2023/06/08 06:57:35;;;;;;;7.35;2.05;;;16.30;99.90;;;;;;5055309;28;20366;-74
2023/06/08 07:00:07;;;;;;;4.68;1.90;;;16.50;99.90;;;;;;5054017;28;20017;-75
2023/06/08 07:02:33;;;;;;;6.50;2.13;;;16.60;99.90;;;;;;5055216;28;20032;-74
2023/06/08 07:05:02;;;;;;;7.70;2.10;;;16.50;99.90;;;;;;5055545;28;20021;-73
2023/06/08 07:07:28;;;;;;;4.85;1.88;;;16.50;99.90;;;;;;5053767;28;20017;-75
2023/06/08 07:09:53;;;;;;;9.68;2.80;;;16.60;99.90;;;;;;5055285;28;20024;-74
2023/06/08 07:12:19;;;;;;;10.25;3.38;;;16.70;99.90;;;;;;5054140;28;20499;-77
2023/06/08 07:14:45;;;;;;;8.00;2.72;;;16.90;99.90;;;;;;5055669;28;20029;-78
2023/06/08 07:17:14;;;;;;;7.68;3.55;;;17.10;99.90;;;;;;5055233;28;20021;-77
2023/06/08 07:19:41;;;;;;;8.70;3.28;;;17.30;99.90;;;;;;5055258;28;20021;-73
2023/06/08 07:22:07;;;;;;;9.13;2.72;;;17.10;99.90;;;;;;5054792;28;20361;-75
2023/06/08 07:24:33;;;;;;;8.82;2.35;;;17.10;99.90;;;;;;5054668;28;20107;-75
2023/06/08 07:26:58;;;;;;;10.20;2.95;;;17.00;99.90;;;;;;5055213;28;20063;-73
2023/06/08 07:29:24;;;;;;;13.77;3.88;;;16.90;99.90;;;;;;5055190;28;20017;-74
2023/06/08 07:31:50;;;;;;;12.90;3.92;;;17.00;99.90;;;;;;5055126;28;20400;-74
2023/06/08 07:34:15;;;;;;;10.18;3.50;;;17.70;99.90;;;;;;5055149;28;20108;-75
2023/06/08 07:36:41;;;;;;;8.38;2.92;;;17.20;99.90;;;;;;5054879;28;20028;-74
2023/06/08 07:39:07;;;;;;;12.15;4.97;;;17.20;99.90;;;;;;5053468;28;20028;-74
2023/06/08 07:41:32;;;;;;;10.95;2.80;;;17.70;99.90;;;;;;5053447;28;20013;-74
2023/06/08 07:43:58;;;;;;;9.77;2.38;;;17.40;99.90;;;;;;5052975;28;20388;-74
2023/06/08 07:46:24;;;;;;;9.43;2.53;;;17.70;99.90;;;;;;5055044;28;20091;-74
2023/06/08 07:48:50;;;;;;;11.82;3.05;;;17.90;99.90;;;;;;5054267;28;20036;-74
2023/06/08 07:51:15;;;;;;;7.38;3.28;;;18.00;99.90;;;;;;5054605;28;20025;-76
2023/06/08 07:53:41;;;;;;;10.25;2.80;;;18.20;99.90;;;;;;5054247;28;20044;-75
2023/06/08 07:56:07;;;;;;;7.50;2.60;;;19.80;99.90;;;;;;5054082;28;20029;-75
2023/06/08 07:58:33;;;;;;;8.48;3.17;;;18.60;99.90;;;;;;5054412;28;20040;-75
2023/06/08 08:01:02;;;;;;;12.27;3.40;;;18.60;99.90;;;;;;5054409;28;20021;-76
2023/06/08 08:03:28;;;;;;;12.48;3.70;;;18.80;99.90;;;;;;5052570;28;20025;-73
2023/06/08 08:05:54;;;;;;;9.48;2.80;;;18.80;99.90;;;;;;5054059;28;20400;-75
2023/06/08 08:08:20;;;;;;;9.20;2.83;;;18.80;99.90;;;;;;5054043;28;20369;-75
2023/06/08 08:10:46;;;;;;;6.00;3.03;;;18.70;99.90;;;;;;5052933;28;20086;-75
2023/06/08 08:13:12;;;;;;;8.23;3.17;;;18.70;99.90;;;;;;5053923;28;20392;-75
2023/06/08 08:15:40;;;;;;;9.25;2.97;;;18.60;99.90;;;;;;5052251;28;20094;-76
2023/06/08 08:18:06;;;;;;;7.78;2.70;;;19.20;99.90;;;;;;5053602;28;20017;-75
2023/06/08 08:20:32;;;;;;;5.85;2.42;;;;;;;;;;5053188;28;20032;-76
2023/06/08 08:22:58;;;;;;;9.25;3.35;;;19.10;99.90;;;;;;5052265;28;20086;-74
2023/06/08 08:25:24;;;;;;;7.93;2.70;;;19.30;99.90;;;;;;5053648;28;20033;-74
2023/06/08 08:27:50;;;;;;;5.18;2.33;;;19.30;99.90;;;;;;5053745;28;20447;-76
2023/06/08 08:30:16;;;;;;;5.55;2.00;;;;;;;;;;5052244;28;20104;-76
2023/06/08 08:32:41;;;;;;;7.70;2.35;;;19.50;99.90;;;;;;5052116;28;20040;-76
2023/06/08 08:35:09;;;;;;;6.85;2.70;;;19.60;99.90;;;;;;5053527;28;20029;-75
2023/06/08 08:37:35;;;;;;;8.85;2.35;;;19.70;99.90;;;;;;5052523;28;20025;-76
2023/06/08 08:40:01;;;;;;;6.80;2.38;;;19.90;99.90;;;;;;5053281;28;20017;-76
2023/06/08 08:42:29;;;;;;;9.20;2.63;;;19.90;99.90;;;;;;5053349;28;20094;-76
2023/06/08 08:44:55;;;;;;;;;;;20.10;99.90;;;;;;5054502;28;20021;-76
2023/06/08 08:47:28;;;;;;;7.78;2.55;;;20.20;99.90;;;;;;5052093;28;19905;-76
2023/06/08 08:50:01;;;;;;;10.20;2.67;;;20.40;99.90;;;;;;5053681;28;20531;-75
2023/06/08 08:52:29;;;;;;;8.07;2.40;;;20.50;99.90;;;;;;5053466;28;20017;-73
2023/06/08 08:54:57;;;;;;;7.70;2.97;;;20.70;99.90;;;;;;5053461;28;20017;-74
2023/06/08 08:57:27;;;;;;;4.88;2.65;;;20.70;99.90;;;;;;5053447;28;20021;-73
2023/06/08 08:59:54;;;;;;;8.27;2.97;;;21.40;99.90;;;;;;5053409;28;20040;-74
2023/06/08 09:02:20;;;;;;;10.07;3.25;;;21.00;99.90;;;;;;5053272;28;20021;-74
2023/06/08 09:04:46;;;;;;;4.63;2.50;;;21.00;99.90;;;;;;5052094;28;20029;-74
2023/06/08 09:07:16;;;;;;;6.90;2.15;;;21.00;99.90;;;;;;5053886;28;20017;-74
2023/06/08 09:10:11;;;;;;;5.82;2.38;;;20.90;99.90;;;;;;5054120;28;20135;-74
2023/06/08 09:12:38;;;;;;;10.65;2.67;;;21.10;99.90;;;;;;5052938;28;20032;-74
2023/06/08 09:15:05;;;;;;;6.32;2.92;;;21.30;99.90;;;;;;5053248;28;20365;-74
2023/06/08 09:17:51;;;;;;;9.13;3.17;;;21.40;99.90;;;;;;5053595;28;20041;-74
2023/06/08 09:20:27;;;;;;;5.63;2.67;;;21.60;99.90;;;;;;5053057;28;20480;-73
2023/06/08 09:22:53;;;;;;;11.48;2.70;;;21.90;99.90;;;;;;5051838;28;20021;-73
2023/06/08 09:25:32;;;;;;;9.70;2.97;;;22.00;99.90;;;;;;5053071;28;20365;-74
2023/06/08 09:28:25;;;;;;;8.32;2.90;;;22.20;99.60;;;;;;5053211;28;20021;-73
2023/06/08 09:30:51;;;;;;;9.13;2.50;;;22.30;99.60;;;;;;5052081;28;20075;-75
2023/06/08 09:33:21;;;;;;;8.20;3.58;;;22.30;98.40;;;;;;5056420;28;20489;-74
2023/06/08 09:36:02;;;;;;;8.35;2.45;;;22.40;98.60;;;;;;5057563;28;20021;-73
2023/06/08 09:38:29;;;;;;;7.80;3.25;;;22.70;97.40;;;;;;5057534;28;20027;-74
2023/06/08 09:41:15;;;;;;;9.93;3.13;;;22.70;97.60;;;;;;5056688;28;20013;-74
2023/06/08 09:43:45;;;;;;;7.78;3.15;;;22.70;97.20;;;;;;5056804;28;20518;-74
2023/06/08 09:46:15;;;;;;;7.70;2.90;;;22.80;97.20;;;;;;5056382;28;20074;-74
2023/06/08 09:48:53;;;;;;;8.45;2.83;;;23.10;96.40;;;;;;5056520;28;20027;-74
2023/06/08 09:51:21;;;;;;;10.15;2.90;;;23.10;96.00;;;;;;5057246;28;20028;-74
2023/06/08 09:53:57;;;;;;;6.43;2.17;;;23.10;96.30;;;;;;5055394;28;20033;-74
2023/06/08 09:56:26;;;;;;;10.23;3.38;;;23.30;96.30;;;;;;5056847;28;20380;-73
2023/06/08 09:58:56;;;;;;;6.28;2.30;;;23.50;95.90;;;;;;5056595;28;20508;-74
2023/06/08 10:01:34;;;;;;;10.20;3.10;;;23.70;95.70;;;;;;5056303;28;20543;-74
2023/06/08 10:04:01;;;;;;;8.38;2.85;;;23.70;95.70;;;;;;5056447;28;20032;-75
2023/06/08 10:06:30;;;;;;;8.20;2.90;;;23.80;94.40;;;;;;5056150;28;20033;-73
2023/06/08 10:08:58;;;;;;;5.30;2.85;;;24.30;95.20;;;;;;5056570;28;20388;-75
2023/06/08 10:11:25;;;;;;;8.63;3.05;;;23.90;93.70;;;;;;5056454;28;20103;-74
2023/06/08 10:13:52;;;;;;;11.43;2.30;;;24.00;93.10;;;;;;5054900;28;20029;-74
2023/06/08 10:16:18;;;;;;;7.00;2.03;;;24.20;93.60;;;;;;5056190;28;20033;-74
2023/06/08 10:18:44;;;;;;;7.25;3.00;;;24.30;93.60;;;;;;5056049;28;20171;-74
2023/06/08 10:21:11;;;;;;;2.78;2.00;;;24.20;91.20;;;;;;5055983;28;20044;-73
2023/06/08 10:23:38;;;;;;;8.05;2.83;;;24.30;92.10;;;;;;5055996;28;20040;-74
2023/06/08 10:26:05;;;;;;;8.13;3.45;;;24.40;92.70;;;;;;5055837;28;20469;-74
2023/06/08 10:28:32;;;;;;;4.25;1.88;;;24.80;90.70;;;;;;5055757;28;20016;-74
2023/06/08 10:30:58;;;;;;;8.15;2.00;;;24.80;91.00;;;;;;5055903;28;20021;-73
2023/06/08 10:33:25;;;;;;;8.85;2.38;;;24.90;90.50;;;;;;5055823;28;20082;-74
2023/06/08 10:36:07;;;;;;;3.58;1.40;;;24.90;89.70;;;;;;5054611;28;20017;-75
2023/06/08 10:38:57;;;;;;;4.25;1.52;;;25.40;88.50;;;;;;5055384;28;20025;-74
2023/06/08 10:41:43;;;;;;;8.85;2.25;;;25.60;88.50;;;;;;5052891;28;20579;-75
2023/06/08 10:44:32;;;;;;;6.35;1.70;;;25.70;85.70;;;;;;5055085;28;20507;-74
2023/06/08 10:47:04;;;;;;;8.57;1.73;;;25.60;84.80;;;;;;5054193;28;20036;-74
2023/06/08 10:49:35;;;;;;;8.32;2.58;;;25.40;84.70;;;;;;5054399;28;20024;-74
2023/06/08 10:52:03;;;;;;;3.60;1.33;;;25.30;84.30;;;;;;5055571;28;20032;-74
2023/06/08 10:54:30;;;;;;;9.30;2.47;;;25.30;84.00;;;;;;5055234;28;20036;-73
2023/06/08 10:56:58;;;;;;;3.67;1.47;;;25.20;84.50;;;;;;5055601;28;20029;-73
2023/06/08 10:59:37;;;;;;;8.40;2.30;;;25.40;83.50;;;;;;5055337;28;20499;-73
2023/06/08 11:02:04;;;;;;;5.60;1.95;;;25.60;85.60;;;;;;5054382;28;20115;-74
2023/06/08 11:04:31;;;;;;;6.80;2.47;;;26.10;84.40;;;;;;5054088;28;20025;-74
2023/06/08 11:07:04;;;;;;;9.00;1.88;;;26.00;84.80;;;;;;5055719;28;20025;-73
2023/06/08 11:09:31;;;;;;;6.72;2.85;;;25.90;84.50;;;;;;5055258;28;20021;-74
2023/06/08 11:11:57;;;;;;;7.60;1.65;;;26.00;80.90;;;;;;5055123;28;20083;-74
2023/06/08 11:14:23;;;;;;;4.07;1.55;;;25.90;81.00;;;;;;5055014;28;20024;-74
2023/06/08 11:16:53;;;;;;;6.40;2.67;;;26.00;81.50;;;;;;5053562;28;20025;-74
2023/06/08 11:19:23;;;;;;;7.85;2.28;;;26.00;81.30;;;;;;5054761;28;20040;-74
2023/06/08 11:21:53;;;;;;;4.50;1.90;;;26.00;82.60;;;;;;5055892;28;20022;-74
2023/06/08 11:24:20;;;;;;;6.25;1.77;;;26.00;83.10;;;;;;5055697;28;20029;-74
2023/06/08 11:26:46;;;;;;;4.00;1.65;;;26.10;80.50;;;;;;5055280;28;20021;-73
2023/06/08 11:29:13;;;;;;;8.43;2.13;;;26.00;79.00;;;;;;5053327;28;20032;-75
2023/06/08 11:31:41;;;;;;;4.18;1.48;;;26.00;79.70;;;;;;5054955;28;20484;-78
2023/06/08 11:34:15;;;;;;;7.28;2.30;;;26.30;81.30;;;;;;5053863;28;20040;-74
2023/06/08 11:36:42;;;;;;;6.28;1.67;;;;;;;;;;5054679;28;20027;-73
2023/06/08 11:39:10;;;;;;;4.05;1.85;;;27.40;80.00;;;;;;5055578;28;20029;-74
2023/06/08 11:41:36;;;;;;;;;;;27.40;80.50;;;;;;5053872;28;20021;-74
2023/06/08 11:44:02;;;;;;;4.50;1.50;;;27.80;78.00;;;;;;5054807;28;19963;-74
2023/06/08 11:46:28;;;;;;;5.93;1.65;;;28.40;78.30;;;;;;5054795;28;20024;-75
2023/06/08 11:49:08;;;;;;;5.15;1.92;;;28.60;74.30;;;;;;5055053;28;20025;-75
2023/06/08 11:51:40;;;;;;;1.90;1.35;;;28.50;74.40;;;;;;5054520;28;20051;-75
2023/06/08 11:54:06;;;;;;;4.35;1.33;;;28.70;74.50;;;;;;5054211;28;20029;-74
2023/06/08 11:56:35;;;;;;;6.28;1.35;;;29.00;71.00;;;;;;5054951;28;20021;-73
2023/06/08 11:59:03;;;;;;;3.72;1.55;;;29.10;71.20;;;;;;5054393;28;20021;-74
2023/06/08 12:01:28;;;;;;;6.03;1.85;;;29.10;71.80;;;;;;5054757;28;20032;-74
2023/06/08 12:03:54;;;;;;;6.43;1.02;;;29.30;70.40;;;;;;5053930;28;20389;-74
2023/06/08 12:06:27;;;;;;;8.38;1.30;;;29.60;68.10;;;;;;5053919;28;20096;-74
2023/06/08 12:08:54;;;;;;;2.95;0.77;;;29.80;66.80;;;;;;5053999;28;20497;-74
2023/06/08 12:11:21;;;;;;;6.35;0.98;;;30.10;66.20;;;;;;5054109;28;20021;-75
2023/06/08 12:13:47;;;;;;;5.25;1.00;;;30.00;66.20;;;;;;5053732;28;20060;-75
2023/06/08 12:16:13;;;;;;;4.03;0.90;;;30.20;65.20;;;;;;5052789;28;20052;-74
2023/06/08 12:18:44;;;;;;;3.45;0.60;;;30.10;65.20;;;;;;5054056;28;20017;-75
2023/06/08 12:21:14;;;;;;;3.33;0.90;;;30.10;65.40;;;;;;5053971;28;20507;-75
2023/06/08 12:23:39;;;;;;;5.18;0.90;;;30.20;66.10;;;;;;5053900;28;20017;-75
2023/06/08 12:26:06;;;;;;;3.20;1.27;;;30.00;64.00;;;;;;5054279;28;20032;-76
2023/06/08 12:28:32;;;;;;;5.63;1.38;;;30.00;64.00;;;;;;5052239;28;20032;-75
2023/06/08 12:31:00;;;;;;;1.98;0.70;;;30.10;64.80;;;;;;5053734;28;20032;-75
2023/06/08 12:33:26;;;;;;;;;;;30.40;64.40;;;;;;5052942;28;20021;-76
2023/06/08 12:35:53;;;;;;;3.60;0.68;;;30.70;63.60;;;;;;5054292;28;19993;-76
2023/06/08 12:38:22;;;;;;;5.47;1.55;;;31.10;61.80;;;;;;5053355;28;20025;-76
2023/06/08 12:40:51;;;;;;;4.13;1.27;;;31.10;62.10;;;;;;5053823;28;20071;-75
2023/06/08 12:43:21;;;;;;;4.43;1.33;;;31.20;60.60;;;;;;5052914;28;20086;-75
2023/06/08 12:45:47;;;;;;;1.90;0.60;;;30.90;60.10;;;;;;5053782;28;20025;-74
2023/06/08 12:48:14;;;;;;;3.33;0.77;;;31.00;60.30;;;;;;5053676;28;20025;-75